Time;durP1;ratioP1;P1;durP2;ratioP2;P2;SDS_P1;SDS_P2;PMS_P1;PMS_P2;Temp;Humidity;BMP_temperature;BMP_pressure;BME280_temperature;BME280_humidity;BME280_pressure;Samples;Min_cycle;Max_cycle;Signal;HPM_P1;HPM_P2
2022/04/10 00:01:34;;;;;;;1.88;0.93;;;3.50;99.90;;;;;;4936257;29;20046;-74
2022/04/10 00:04:00;;;;;;;3.85;2.10;;;3.50;99.90;;;;;;4953019;29;20555;-74
2022/04/10 00:06:27;;;;;;;1.35;1.25;;;3.50;99.90;;;;;;4935783;29;20443;-75
2022/04/10 00:08:53;;;;;;;8.82;1.73;;;3.40;99.90;;;;;;4952731;29;20045;-74
2022/04/10 00:11:19;;;;;;;2.25;1.40;;;3.30;99.90;;;;;;4952899;29;20326;-75
2022/04/10 00:13:44;;;;;;;1.70;1.60;;;3.30;99.90;;;;;;4952769;29;20292;-74
2022/04/10 00:16:12;;;;;;;1.60;1.30;;;3.30;99.90;;;;;;4934888;29;20032;-74
2022/04/10 00:18:39;;;;;;;1.05;1.05;;;3.30;99.90;;;;;;4953368;29;20046;-74
2022/04/10 00:21:05;;;;;;;5.32;1.63;;;3.30;99.90;;;;;;4952890;29;20043;-74
2022/04/10 00:23:32;;;;;;;1.50;1.17;;;3.20;99.90;;;;;;4952915;29;20105;-74
2022/04/10 00:25:57;;;;;;;1.38;1.27;;;3.10;99.90;;;;;;4952788;29;20034;-74
2022/04/10 00:28:23;;;;;;;1.73;1.30;;;3.10;99.90;;;;;;4952543;28;20031;-75
2022/04/10 00:30:49;;;;;;;1.52;1.27;;;3.20;99.90;;;;;;4952479;29;20039;-74
2022/04/10 00:33:15;;;;;;;1.80;1.70;;;3.10;99.90;;;;;;4952860;29;20030;-75
2022/04/10 00:35:41;;;;;;;3.38;1.30;;;3.10;99.90;;;;;;4952539;29;20027;-74
2022/04/10 00:38:06;;;;;;;3.08;1.65;;;3.00;99.90;;;;;;4952442;29;20039;-74
2022/04/10 00:40:32;;;;;;;1.92;1.50;;;3.00;99.90;;;;;;4952167;29;20039;-74
2022/04/10 00:42:58;;;;;;;2.88;1.60;;;2.90;99.90;;;;;;4952459;29;20030;-74
2022/04/10 00:45:24;;;;;;;2.58;1.70;;;2.80;99.90;;;;;;4952477;29;20034;-74
2022/04/10 00:47:50;;;;;;;2.20;1.17;;;2.70;99.90;;;;;;4952554;29;20492;-75
2022/04/10 00:50:17;;;;;;;1.70;1.60;;;2.80;99.90;;;;;;4952308;29;20582;-75
2022/04/10 00:52:45;;;;;;;3.53;2.15;;;2.80;99.90;;;;;;4952203;29;20464;-74
2022/04/10 00:55:12;;;;;;;3.60;2.05;;;2.80;99.90;;;;;;4952677;29;20508;-74
2022/04/10 00:57:38;;;;;;;3.53;1.67;;;2.70;99.90;;;;;;4952625;29;20027;-74
2022/04/10 01:00:11;;;;;;;2.47;1.90;;;2.70;99.90;;;;;;4952019;29;20031;-75
2022/04/10 01:02:39;;;;;;;2.13;1.70;;;2.70;99.90;;;;;;4952492;29;20507;-74
2022/04/10 01:05:05;;;;;;;4.32;1.55;;;2.60;99.90;;;;;;4934792;29;20034;-75
2022/04/10 01:07:31;;;;;;;2.20;1.77;;;2.60;99.90;;;;;;4934665;29;20448;-74
2022/04/10 01:09:57;;;;;;;1.77;1.38;;;2.60;99.90;;;;;;4951658;29;20027;-75
2022/04/10 01:12:23;;;;;;;6.22;1.98;;;2.60;99.90;;;;;;4934565;29;20039;-74
2022/04/10 01:14:50;;;;;;;4.93;2.10;;;2.60;99.90;;;;;;4951469;29;20019;-74
2022/04/10 01:17:16;;;;;;;2.28;1.63;;;2.70;99.90;;;;;;4951570;29;20039;-74
2022/04/10 01:19:42;;;;;;;1.95;1.48;;;2.70;99.90;;;;;;4952350;29;20050;-74
2022/04/10 01:22:09;;;;;;;5.15;1.92;;;2.70;99.90;;;;;;4952199;29;20117;-74
2022/04/10 01:24:36;;;;;;;1.58;1.20;;;2.60;99.90;;;;;;4951840;29;20387;-74
2022/04/10 01:27:03;;;;;;;1.52;1.40;;;2.50;99.90;;;;;;4934565;28;20028;-74
2022/04/10 01:29:29;;;;;;;2.28;2.05;;;2.40;99.90;;;;;;4938041;29;20114;-74
2022/04/10 01:31:55;;;;;;;3.10;1.77;;;2.40;99.90;;;;;;4955703;29;20028;-75
2022/04/10 01:34:21;;;;;;;1.75;1.65;;;2.50;99.90;;;;;;4938530;29;20027;-74
2022/04/10 01:36:46;;;;;;;1.80;1.70;;;2.60;99.90;;;;;;4955882;29;20027;-75
2022/04/10 01:39:15;;;;;;;2.33;1.85;;;2.60;99.90;;;;;;4955127;29;20024;-74
2022/04/10 01:41:41;;;;;;;1.67;1.52;;;2.60;99.90;;;;;;4938236;29;20401;-74
2022/04/10 01:44:09;;;;;;;2.38;1.75;;;2.60;99.90;;;;;;4937836;29;20034;-75
2022/04/10 01:46:35;;;;;;;2.30;1.73;;;2.50;99.90;;;;;;4955559;29;20030;-75
2022/04/10 01:49:03;;;;;;;3.75;1.98;;;2.30;99.90;;;;;;4955240;29;20050;-74
2022/04/10 01:51:28;;;;;;;1.73;1.60;;;2.20;99.90;;;;;;4955288;29;20023;-74
2022/04/10 01:53:55;;;;;;;3.78;1.95;;;2.10;99.90;;;;;;4937486;29;20023;-75
2022/04/10 01:56:22;;;;;;;1.92;1.83;;;2.10;99.90;;;;;;4937661;29;20077;-74
2022/04/10 01:58:48;;;;;;;6.28;2.38;;;2.10;99.90;;;;;;4937867;29;20337;-74
2022/04/10 02:01:16;;;;;;;3.30;2.15;;;2.20;99.90;;;;;;4937451;29;20031;-75
2022/04/10 02:03:43;;;;;;;2.03;1.67;;;2.20;99.90;;;;;;4937855;29;20038;-74
2022/04/10 02:06:11;;;;;;;3.55;2.17;;;2.20;99.90;;;;;;4937798;29;20027;-74
2022/04/10 02:08:38;;;;;;;3.30;2.00;;;2.20;99.90;;;;;;4955108;29;20435;-74
2022/04/10 02:11:16;;;;;;;3.22;1.85;;;2.30;99.90;;;;;;4937473;29;20027;-75
2022/04/10 02:13:42;;;;;;;1.75;1.65;;;2.30;99.90;;;;;;4937877;29;20066;-75
2022/04/10 02:16:18;;;;;;;5.22;1.70;;;2.20;99.90;;;;;;4955273;29;20062;-75
2022/04/10 02:18:44;;;;;;;2.35;1.60;;;2.20;99.90;;;;;;4954893;29;20086;-75
2022/04/10 02:21:11;;;;;;;3.53;2.00;;;2.10;99.90;;;;;;4937645;29;20051;-74
2022/04/10 02:23:37;;;;;;;1.65;1.55;;;2.10;99.90;;;;;;4954535;29;20064;-74
2022/04/10 02:26:03;;;;;;;6.38;1.63;;;2.10;99.90;;;;;;4954773;29;20050;-74
2022/04/10 02:28:29;;;;;;;2.47;1.83;;;2.00;99.90;;;;;;4954693;28;20283;-74
2022/04/10 02:30:55;;;;;;;4.30;1.80;;;2.10;99.90;;;;;;4955101;29;20183;-74
2022/04/10 02:33:21;;;;;;;2.63;2.20;;;2.20;99.90;;;;;;4954495;29;20038;-75
2022/04/10 02:35:46;;;;;;;6.03;2.40;;;2.30;99.90;;;;;;4954557;29;20057;-74
2022/04/10 02:38:12;;;;;;;4.85;2.42;;;2.30;99.90;;;;;;4954447;29;20023;-74
2022/04/10 02:40:38;;;;;;;3.17;2.60;;;2.40;99.90;;;;;;4953288;28;20039;-74
2022/04/10 02:43:04;;;;;;;3.05;2.03;;;2.30;99.90;;;;;;4937542;29;20027;-75
2022/04/10 02:45:30;;;;;;;2.95;2.10;;;2.40;99.90;;;;;;4954330;29;20420;-75
2022/04/10 02:47:55;;;;;;;1.52;1.42;;;2.40;99.90;;;;;;4954130;29;20023;-74
2022/04/10 02:50:21;;;;;;;2.63;1.60;;;2.30;99.90;;;;;;4954344;29;20027;-74
2022/04/10 02:52:48;;;;;;;2.20;1.85;;;2.30;99.90;;;;;;4937041;29;20402;-74
2022/04/10 02:55:14;;;;;;;2.35;1.65;;;2.30;99.90;;;;;;4954361;29;20031;-74
2022/04/10 02:57:40;;;;;;;3.33;1.85;;;2.20;99.90;;;;;;4954498;29;20053;-74
2022/04/10 03:00:07;;;;;;;2.60;2.13;;;2.10;99.90;;;;;;4954594;29;20451;-75
2022/04/10 03:02:32;;;;;;;2.58;1.83;;;2.20;99.90;;;;;;4954398;29;20110;-75
2022/04/10 03:04:58;;;;;;;2.22;2.03;;;2.20;99.90;;;;;;4954264;29;20111;-75
2022/04/10 03:07:24;;;;;;;3.65;2.25;;;2.10;99.90;;;;;;4953989;29;20038;-75
2022/04/10 03:09:49;;;;;;;2.15;1.95;;;2.00;99.90;;;;;;4953689;29;20023;-74
2022/04/10 03:12:15;;;;;;;1.85;1.73;;;2.10;99.90;;;;;;4954470;29;20063;-74
2022/04/10 03:14:41;;;;;;;4.32;2.22;;;2.00;99.90;;;;;;4954373;29;20452;-74
2022/04/10 03:17:07;;;;;;;1.75;1.63;;;2.00;99.90;;;;;;4953923;29;20480;-75
2022/04/10 03:19:33;;;;;;;2.83;2.00;;;1.90;99.90;;;;;;4953817;29;20031;-75
2022/04/10 03:21:58;;;;;;;2.13;1.60;;;1.90;99.90;;;;;;4953960;29;20031;-74
2022/04/10 03:24:24;;;;;;;3.75;1.85;;;1.90;99.90;;;;;;4953682;29;20595;-75
2022/04/10 03:26:50;;;;;;;2.80;1.67;;;1.70;99.90;;;;;;4953858;29;20028;-74
2022/04/10 03:29:15;;;;;;;3.92;2.30;;;1.60;99.90;;;;;;4953722;28;20046;-75
2022/04/10 03:31:41;;;;;;;2.72;2.10;;;1.50;99.90;;;;;;4953571;29;20031;-74
2022/04/10 03:34:07;;;;;;;2.60;2.03;;;1.40;99.90;;;;;;4953589;29;20090;-75
2022/04/10 03:36:32;;;;;;;2.45;1.95;;;1.40;99.90;;;;;;4953812;29;20034;-75
2022/04/10 03:38:58;;;;;;;2.85;1.83;;;1.30;99.90;;;;;;4953388;29;20172;-75
2022/04/10 03:41:24;;;;;;;5.95;2.53;;;1.20;99.90;;;;;;4953419;29;20027;-75
2022/04/10 03:43:49;;;;;;;1.83;1.70;;;1.00;99.90;;;;;;4953452;29;20020;-75
2022/04/10 03:46:15;;;;;;;3.13;1.65;;;1.00;99.90;;;;;;4953380;29;20034;-75
2022/04/10 03:48:41;;;;;;;3.75;2.33;;;0.90;99.90;;;;;;4953309;29;20110;-75
2022/04/10 03:51:06;;;;;;;3.50;2.35;;;0.80;99.90;;;;;;4952929;28;20054;-74
2022/04/10 03:53:35;;;;;;;3.78;2.30;;;0.70;99.90;;;;;;4953212;29;20054;-75
2022/04/10 03:56:02;;;;;;;3.60;2.47;;;0.70;99.90;;;;;;4935977;29;20023;-75
2022/04/10 03:58:28;;;;;;;2.45;2.03;;;0.60;99.90;;;;;;4953038;29;20133;-74
2022/04/10 04:00:53;;;;;;;6.68;3.00;;;0.50;99.90;;;;;;4952958;29;20524;-75
2022/04/10 04:03:19;;;;;;;3.70;2.15;;;0.40;99.90;;;;;;4952995;29;20043;-74
2022/04/10 04:05:45;;;;;;;5.35;2.63;;;0.30;99.90;;;;;;4935683;29;20051;-75
2022/04/10 04:08:10;;;;;;;1.90;1.65;;;0.40;99.90;;;;;;4953024;29;20034;-74
2022/04/10 04:10:36;;;;;;;2.08;1.83;;;0.30;99.90;;;;;;4952693;29;20034;-75
2022/04/10 04:13:02;;;;;;;3.33;2.00;;;0.20;99.90;;;;;;4952758;29;20034;-74
2022/04/10 04:15:28;;;;;;;6.88;2.40;;;0.10;99.90;;;;;;4935342;29;20552;-75
2022/04/10 04:17:54;;;;;;;2.03;1.77;;;0.10;99.90;;;;;;4952773;29;20038;-74
2022/04/10 04:20:20;;;;;;;2.03;1.88;;;0.00;99.90;;;;;;4952671;29;20397;-75
2022/04/10 04:22:45;;;;;;;3.97;2.53;;;-0.10;99.90;;;;;;4952514;29;20082;-74
2022/04/10 04:25:11;;;;;;;2.38;1.75;;;0.00;99.90;;;;;;4952644;29;20027;-75
2022/04/10 04:27:38;;;;;;;3.47;2.13;;;-0.10;99.90;;;;;;4952813;29;20047;-75
2022/04/10 04:30:05;;;;;;;4.03;2.10;;;-0.30;99.90;;;;;;4952278;28;20078;-74
2022/04/10 04:32:30;;;;;;;2.58;1.80;;;-0.30;99.90;;;;;;4952841;29;20295;-75
2022/04/10 04:34:56;;;;;;;3.20;1.95;;;0.00;99.90;;;;;;4952843;29;20723;-75
2022/04/10 04:37:22;;;;;;;3.05;2.22;;;-0.30;99.90;;;;;;4935051;29;20037;-75
2022/04/10 04:39:47;;;;;;;2.67;2.10;;;-0.20;99.90;;;;;;4952044;29;20031;-75
2022/04/10 04:42:13;;;;;;;3.70;2.20;;;-0.30;99.90;;;;;;4952232;29;20135;-75
2022/04/10 04:44:39;;;;;;;2.28;2.00;;;-0.30;99.90;;;;;;4952201;29;20029;-74
2022/04/10 04:47:05;;;;;;;2.72;2.30;;;-0.30;99.90;;;;;;4934810;29;20069;-75
2022/04/10 04:49:30;;;;;;;2.90;1.98;;;-0.20;99.90;;;;;;4952334;29;20555;-75
2022/04/10 04:51:56;;;;;;;4.13;2.40;;;-0.30;99.90;;;;;;4952346;29;20066;-75
2022/04/10 04:54:22;;;;;;;2.78;1.83;;;-0.40;99.90;;;;;;4952022;29;20019;-75
2022/04/10 04:56:48;;;;;;;2.97;1.85;;;-0.20;99.90;;;;;;4952061;29;20400;-75
2022/04/10 04:59:14;;;;;;;5.28;2.40;;;-0.70;99.90;;;;;;4952067;29;20023;-75
2022/04/10 05:01:43;;;;;;;2.92;2.20;;;-0.40;99.90;;;;;;4951723;29;20027;-75
2022/04/10 05:04:09;;;;;;;;;;;-0.30;99.90;;;;;;4951779;29;20025;-75
2022/04/10 05:06:35;;;;;;;2.38;1.65;;;-0.40;99.90;;;;;;4952319;29;20282;-75
2022/04/10 05:09:00;;;;;;;5.85;2.53;;;-0.40;99.90;;;;;;4951623;29;20027;-74
2022/04/10 05:11:26;;;;;;;1.63;1.50;;;-0.50;99.90;;;;;;4951849;29;20038;-75
2022/04/10 05:13:52;;;;;;;1.83;1.73;;;-0.60;99.90;;;;;;4952300;29;20063;-77
2022/04/10 05:16:18;;;;;;;2.10;1.88;;;-0.40;99.90;;;;;;4951816;29;20031;-75
2022/04/10 05:18:44;;;;;;;3.75;1.98;;;-0.60;99.90;;;;;;4951753;29;20524;-75
2022/04/10 05:21:09;;;;;;;5.78;1.92;;;-0.50;99.90;;;;;;4951566;29;20154;-75
2022/04/10 05:23:35;;;;;;;3.05;2.10;;;-0.50;99.90;;;;;;4934183;29;20072;-76
2022/04/10 05:26:02;;;;;;;2.60;2.40;;;-0.40;99.90;;;;;;4935448;29;20031;-75
2022/04/10 05:28:28;;;;;;;4.18;2.30;;;-0.40;99.90;;;;;;4951497;29;20028;-76
2022/04/10 05:30:54;;;;;;;4.03;2.13;;;-0.30;99.90;;;;;;4951797;29;20113;-75
2022/04/10 05:33:20;;;;;;;3.58;2.00;;;-0.30;99.90;;;;;;4952023;29;20024;-75
2022/04/10 05:35:47;;;;;;;10.23;2.40;;;-0.30;99.90;;;;;;4951898;29;20245;-75
2022/04/10 05:38:13;;;;;;;9.77;3.10;;;-0.20;99.90;;;;;;4951870;29;20031;-75
2022/04/10 05:40:38;;;;;;;24.85;7.10;;;-0.10;99.90;;;;;;4934206;29;20050;-75
2022/04/10 05:43:04;;;;;;;31.13;8.68;;;0.10;99.90;;;;;;4951511;29;20028;-75
2022/04/10 05:45:30;;;;;;;63.47;17.48;;;0.40;99.90;;;;;;4951648;29;20024;-75
2022/04/10 05:47:55;;;;;;;68.28;18.00;;;0.60;99.90;;;;;;4951890;29;20024;-76
2022/04/10 05:50:22;;;;;;;34.13;9.57;;;0.80;99.90;;;;;;4952120;29;20038;-75
2022/04/10 05:52:50;;;;;;;16.00;5.30;;;1.00;99.90;;;;;;4934288;29;20027;-75
2022/04/10 05:55:18;;;;;;;24.40;7.72;;;1.20;99.90;;;;;;4951315;29;20027;-75
2022/04/10 05:57:44;;;;;;;33.80;8.13;;;1.50;99.90;;;;;;4953028;29;20027;-75
2022/04/10 06:00:14;;;;;;;15.13;4.78;;;1.80;99.90;;;;;;4952806;29;20492;-76
2022/04/10 06:02:40;;;;;;;4.88;3.00;;;1.70;99.90;;;;;;4953306;29;20039;-76
2022/04/10 06:05:06;;;;;;;7.53;3.90;;;1.80;99.90;;;;;;4955205;29;20023;-76
2022/04/10 06:07:32;;;;;;;8.90;3.53;;;1.80;99.90;;;;;;4953869;29;20078;-76
2022/04/10 06:09:58;;;;;;;5.85;3.38;;;1.80;99.90;;;;;;4952966;29;20039;-75
2022/04/10 06:12:25;;;;;;;6.65;3.72;;;2.10;99.90;;;;;;4934586;29;20023;-76
2022/04/10 06:14:50;;;;;;;9.02;4.50;;;2.30;99.90;;;;;;4936394;29;20055;-75
2022/04/10 06:17:17;;;;;;;5.47;3.33;;;2.40;99.90;;;;;;4955993;29;20066;-76
2022/04/10 06:19:43;;;;;;;4.90;3.55;;;2.40;99.90;;;;;;4938732;29;20059;-76
2022/04/10 06:22:08;;;;;;;9.85;4.47;;;2.50;99.90;;;;;;4955881;29;20035;-75
2022/04/10 06:24:35;;;;;;;4.95;3.13;;;2.50;99.90;;;;;;4955751;29;20068;-76
2022/04/10 06:27:02;;;;;;;5.45;3.15;;;2.50;99.90;;;;;;4938365;29;20055;-76
2022/04/10 06:29:28;;;;;;;4.80;3.10;;;2.60;99.90;;;;;;4955370;28;20055;-76
2022/04/10 06:31:54;;;;;;;2.92;2.65;;;2.60;99.90;;;;;;4937940;29;20038;-76
2022/04/10 06:34:20;;;;;;;4.47;3.22;;;2.90;99.90;;;;;;4937992;29;20487;-76
2022/04/10 06:36:46;;;;;;;3.33;2.28;;;3.10;99.90;;;;;;4954709;29;20034;-76
2022/04/10 06:39:12;;;;;;;2.42;2.22;;;3.60;99.90;;;;;;4954396;29;20028;-76
2022/04/10 06:41:38;;;;;;;3.50;2.20;;;4.00;99.90;;;;;;4954619;29;20519;-76
2022/04/10 06:44:04;;;;;;;2.85;1.83;;;4.50;99.90;;;;;;4954444;29;20030;-76
2022/04/10 06:46:30;;;;;;;2.10;1.90;;;4.70;99.90;;;;;;4954337;29;20027;-75
2022/04/10 06:48:55;;;;;;;2.25;2.00;;;5.00;99.90;;;;;;4954470;29;20023;-76
2022/04/10 06:51:24;;;;;;;2.25;2.10;;;5.40;99.90;;;;;;4954199;29;20034;-75
2022/04/10 06:53:50;;;;;;;2.88;1.98;;;5.30;99.90;;;;;;4953922;29;20472;-76
2022/04/10 06:56:15;;;;;;;1.75;1.65;;;5.40;99.90;;;;;;4954270;29;20082;-76
2022/04/10 06:58:42;;;;;;;1.77;1.60;;;5.20;99.90;;;;;;4954224;29;20391;-75
2022/04/10 07:01:08;;;;;;;1.50;1.40;;;5.00;99.90;;;;;;4954243;29;20043;-75
2022/04/10 07:03:34;;;;;;;2.15;1.95;;;4.70;99.90;;;;;;4954401;29;20495;-77
2022/04/10 07:06:00;;;;;;;2.42;2.22;;;4.70;99.90;;;;;;4954259;29;20032;-75
2022/04/10 07:08:26;;;;;;;2.08;1.80;;;4.80;99.90;;;;;;4953765;29;20019;-78
2022/04/10 07:10:52;;;;;;;4.03;1.70;;;5.10;99.90;;;;;;4954082;29;20066;-76
2022/04/10 07:13:20;;;;;;;3.20;2.00;;;5.30;99.90;;;;;;4954063;29;20034;-76
2022/04/10 07:15:47;;;;;;;2.00;1.60;;;5.40;99.90;;;;;;4954133;29;20106;-76
2022/04/10 07:18:13;;;;;;;2.03;1.83;;;5.30;99.90;;;;;;4953636;29;20023;-75
2022/04/10 07:20:39;;;;;;;2.55;1.98;;;5.30;99.90;;;;;;4953773;29;20456;-76
2022/04/10 07:25:50;;;;;;;2.65;1.92;;;5.70;99.90;;;;;;4953446;28;20027;-75
2022/04/10 07:28:16;;;;;;;3.35;1.98;;;6.00;99.90;;;;;;4953979;29;20034;-75
2022/04/10 07:30:42;;;;;;;3.42;2.10;;;6.40;99.90;;;;;;4953670;29;20035;-76
2022/04/10 07:33:08;;;;;;;4.38;2.08;;;6.40;99.90;;;;;;4953584;29;20388;-75
2022/04/10 07:35:35;;;;;;;2.78;1.90;;;6.50;99.90;;;;;;4953507;29;20377;-75
2022/04/10 07:38:00;;;;;;;1.80;1.70;;;6.50;99.90;;;;;;4954218;29;20023;-75
2022/04/10 07:40:26;;;;;;;1.92;1.70;;;6.40;99.90;;;;;;4953464;29;20037;-75
2022/04/10 07:42:52;;;;;;;2.75;1.98;;;6.20;99.90;;;;;;4953609;29;20470;-75
2022/04/10 07:48:03;;;;;;;2.35;2.15;;;5.80;99.90;;;;;;4953736;29;20544;-75
2022/04/10 07:50:29;;;;;;;2.17;1.98;;;5.80;99.90;;;;;;4953314;29;20046;-74
2022/04/10 07:52:56;;;;;;;1.80;1.70;;;5.90;99.90;;;;;;4953066;29;20309;-75
2022/04/10 07:55:22;;;;;;;1.80;1.70;;;6.00;99.90;;;;;;4952887;29;20023;-75
2022/04/10 07:57:51;;;;;;;3.63;2.00;;;6.30;99.90;;;;;;4953174;29;20118;-74
2022/04/10 08:00:17;;;;;;;3.55;2.75;;;6.70;99.90;;;;;;4953109;29;20015;-75
2022/04/10 08:02:48;;;;;;;5.05;2.67;;;7.30;99.90;;;;;;4953205;29;20485;-74
2022/04/10 08:05:15;;;;;;;2.25;2.00;;;7.60;99.90;;;;;;4953039;29;20114;-75
2022/04/10 08:07:42;;;;;;;2.22;1.95;;;7.50;99.90;;;;;;4952933;29;20106;-75
2022/04/10 08:10:08;;;;;;;3.50;2.10;;;7.00;99.90;;;;;;4953207;29;20027;-74
2022/04/10 08:12:34;;;;;;;2.15;1.70;;;6.70;99.90;;;;;;4952850;29;20034;-75
2022/04/10 08:15:00;;;;;;;2.60;1.55;;;6.70;99.90;;;;;;4952818;29;20027;-75
2022/04/10 08:17:26;;;;;;;4.03;1.90;;;7.10;99.90;;;;;;4935560;29;20031;-75
2022/04/10 08:19:51;;;;;;;2.05;1.95;;;7.40;99.90;;;;;;4952749;29;20031;-75
2022/04/10 08:22:26;;;;;;;2.25;1.30;;;7.50;99.90;;;;;;4952749;29;20047;-75
2022/04/10 08:24:53;;;;;;;1.35;1.25;;;8.00;99.90;;;;;;4952419;29;20042;-75
2022/04/10 08:27:19;;;;;;;2.38;1.55;;;8.30;99.90;;;;;;4952714;29;20561;-75
2022/04/10 08:29:45;;;;;;;3.90;1.88;;;7.70;99.90;;;;;;4952514;29;20043;-75
2022/04/10 08:32:11;;;;;;;5.50;1.80;;;7.50;99.90;;;;;;4952668;29;20106;-75
2022/04/10 08:34:36;;;;;;;2.75;1.85;;;8.10;99.90;;;;;;4952377;29;20439;-76
2022/04/10 08:37:05;;;;;;;2.15;1.60;;;8.40;99.90;;;;;;4934736;29;20039;-75
2022/04/10 08:39:32;;;;;;;3.03;1.60;;;8.40;99.90;;;;;;4951924;29;20054;-75
2022/04/10 08:42:02;;;;;;;1.58;1.40;;;8.30;99.90;;;;;;4952444;29;20306;-74
2022/04/10 08:44:29;;;;;;;1.95;1.08;;;8.80;98.60;;;;;;4952356;29;20022;-75
2022/04/10 08:46:56;;;;;;;3.72;1.40;;;8.70;97.70;;;;;;4952414;29;20038;-75
2022/04/10 08:49:25;;;;;;;3.15;1.23;;;8.50;97.50;;;;;;4952319;29;20024;-74
2022/04/10 08:51:51;;;;;;;;;;;8.50;99.20;;;;;;4952842;29;20106;-75
2022/04/10 08:54:22;;;;;;;2.80;1.83;;;7.80;98.20;;;;;;4951877;29;19915;-74
2022/04/10 08:56:50;;;;;;;2.15;1.52;;;7.80;98.30;;;;;;4952119;29;20027;-75
2022/04/10 08:59:17;;;;;;;6.18;3.08;;;7.70;99.30;;;;;;4952366;29;20019;-74
2022/04/10 09:01:43;;;;;;;2.85;1.42;;;7.60;99.90;;;;;;4952147;29;20046;-74
2022/04/10 09:04:08;;;;;;;3.78;1.42;;;7.50;99.50;;;;;;4951979;29;20102;-75
2022/04/10 09:06:39;;;;;;;2.17;1.35;;;7.70;98.20;;;;;;4951988;29;20035;-74
2022/04/10 09:09:12;;;;;;;1.85;1.52;;;7.80;98.60;;;;;;4934605;29;20023;-74
2022/04/10 09:11:42;;;;;;;2.15;1.45;;;7.90;96.80;;;;;;4951888;29;20034;-74
2022/04/10 09:14:08;;;;;;;2.28;1.83;;;8.00;97.60;;;;;;4951840;29;20526;-75
2022/04/10 09:16:36;;;;;;;4.00;1.30;;;8.30;96.30;;;;;;4951905;29;20035;-74
2022/04/10 09:19:08;;;;;;;6.43;1.40;;;8.80;92.10;;;;;;4952015;29;20032;-74
2022/04/10 09:21:41;;;;;;;2.90;1.70;;;9.00;90.50;;;;;;4951975;29;20038;-75
2022/04/10 09:24:09;;;;;;;2.10;1.30;;;9.20;91.10;;;;;;4951529;29;20102;-74
2022/04/10 09:26:47;;;;;;;1.40;1.30;;;9.30;87.20;;;;;;4951924;29;20035;-75
2022/04/10 09:29:14;;;;;;;3.65;1.50;;;9.20;86.40;;;;;;4951719;29;20051;-75
2022/04/10 09:31:41;;;;;;;1.60;1.50;;;9.70;82.60;;;;;;4951659;29;20023;-75
2022/04/10 09:34:13;;;;;;;5.72;1.10;;;9.60;82.40;;;;;;4952704;29;20075;-74
2022/04/10 09:36:47;;;;;;;1.35;1.20;;;10.10;81.70;;;;;;4952064;29;20114;-76
2022/04/10 09:39:36;;;;;;;1.13;1.00;;;10.00;75.20;;;;;;4951714;29;20106;-74
2022/04/10 09:42:07;;;;;;;6.53;2.15;;;9.30;79.20;;;;;;4951627;29;20039;-74
2022/04/10 09:44:38;;;;;;;3.33;1.10;;;9.00;82.70;;;;;;4952164;29;20024;-74
2022/04/10 09:47:08;;;;;;;2.97;1.58;;;8.70;88.60;;;;;;4952052;29;20388;-74
2022/04/10 09:49:36;;;;;;;2.33;1.58;;;8.80;91.70;;;;;;4954231;28;20081;-75
2022/04/10 09:52:15;;;;;;;1.98;1.23;;;9.00;84.00;;;;;;4955708;29;20023;-75
2022/04/10 09:54:50;;;;;;;1.13;1.13;;;9.40;80.50;;;;;;4955799;29;20039;-74
2022/04/10 09:57:22;;;;;;;1.40;1.25;;;9.60;75.20;;;;;;4955559;29;20034;-74
2022/04/10 09:59:50;;;;;;;2.15;1.40;;;9.10;73.50;;;;;;4955813;29;20027;-75
2022/04/10 10:02:21;;;;;;;6.78;1.67;;;9.40;73.10;;;;;;4955434;29;20031;-75
2022/04/10 10:04:48;;;;;;;2.25;1.20;;;9.60;72.60;;;;;;4955662;29;20290;-74
2022/04/10 10:07:15;;;;;;;2.85;1.27;;;9.10;72.80;;;;;;4956225;29;20106;-75
2022/04/10 10:09:42;;;;;;;4.18;1.60;;;9.10;73.30;;;;;;4954885;29;20016;-75
2022/04/10 10:12:08;;;;;;;1.90;1.48;;;9.30;75.00;;;;;;4955860;29;20098;-75
2022/04/10 10:14:36;;;;;;;6.03;2.55;;;9.70;77.70;;;;;;4955163;29;20051;-75
2022/04/10 10:17:04;;;;;;;3.08;1.27;;;10.20;78.40;;;;;;4955650;29;20037;-75
2022/04/10 10:19:34;;;;;;;1.67;1.38;;;10.80;74.40;;;;;;4955147;29;20027;-74
2022/04/10 10:22:01;;;;;;;2.55;1.20;;;11.10;76.70;;;;;;4937957;29;20043;-75
2022/04/10 10:24:33;;;;;;;2.08;1.10;;;11.50;71.10;;;;;;4955005;29;20023;-75
2022/04/10 10:27:10;;;;;;;1.17;1.00;;;11.70;69.90;;;;;;4954976;29;20559;-75
2022/04/10 10:29:55;;;;;;;2.55;0.93;;;11.30;68.20;;;;;;4955069;29;20524;-74
2022/04/10 10:32:29;;;;;;;3.55;1.15;;;11.00;70.60;;;;;;4955056;29;20027;-75
2022/04/10 10:34:56;;;;;;;1.00;1.00;;;11.30;67.10;;;;;;4955047;29;20038;-75
2022/04/10 10:37:29;;;;;;;1.10;1.00;;;11.10;65.20;;;;;;4954931;29;20023;-75
2022/04/10 10:39:56;;;;;;;4.97;1.20;;;10.30;67.60;;;;;;4954859;29;20032;-75
2022/04/10 10:42:22;;;;;;;2.10;1.90;;;10.00;65.30;;;;;;4954696;29;20042;-76
2022/04/10 10:44:51;;;;;;;1.80;1.00;;;9.60;68.50;;;;;;4954769;29;20384;-74
2022/04/10 10:47:20;;;;;;;1.23;1.00;;;9.30;68.10;;;;;;4954675;29;20106;-74
2022/04/10 10:49:47;;;;;;;3.25;1.20;;;9.30;68.10;;;;;;4954744;29;20106;-74
2022/04/10 10:52:14;;;;;;;4.20;1.25;;;9.00;69.00;;;;;;4954459;29;20020;-74
2022/04/10 10:54:46;;;;;;;2.92;1.15;;;8.90;69.90;;;;;;4954471;29;20069;-74
2022/04/10 10:57:39;;;;;;;1.63;1.13;;;8.70;69.80;;;;;;4954803;29;20327;-74
2022/04/10 11:00:06;;;;;;;7.07;1.90;;;9.00;70.00;;;;;;4954241;28;20382;-75
2022/04/10 11:02:35;;;;;;;2.28;1.25;;;9.70;70.00;;;;;;4954538;29;20288;-75
2022/04/10 11:05:06;;;;;;;1.17;1.00;;;10.00;68.70;;;;;;4954435;29;20015;-74
2022/04/10 11:07:36;;;;;;;3.15;1.27;;;10.70;67.00;;;;;;4954164;29;20028;-74
2022/04/10 11:10:07;;;;;;;1.48;0.85;;;10.90;66.50;;;;;;4953885;29;20019;-75
2022/04/10 11:12:54;;;;;;;1.95;0.90;;;10.40;67.60;;;;;;4953933;29;20424;-74
2022/04/10 11:15:22;;;;;;;0.95;0.82;;;9.90;69.20;;;;;;4953995;29;20038;-75
2022/04/10 11:17:49;;;;;;;1.88;1.00;;;10.40;68.90;;;;;;4954160;29;20027;-74
2022/04/10 11:20:17;;;;;;;2.22;1.08;;;10.60;65.10;;;;;;4954292;29;20028;-74
2022/04/10 11:22:54;;;;;;;2.92;1.00;;;10.60;64.60;;;;;;4954351;29;20031;-74
2022/04/10 11:25:48;;;;;;;8.30;1.83;;;11.30;65.00;;;;;;4953624;29;20027;-74
2022/04/10 11:28:14;;;;;;;1.20;1.10;;;11.00;64.30;;;;;;4953962;29;20052;-74
2022/04/10 11:30:42;;;;;;;2.88;1.30;;;10.40;65.70;;;;;;4954752;29;20027;-74
2022/04/10 11:33:13;;;;;;;2.15;1.25;;;9.90;66.20;;;;;;4954963;29;20063;-74
2022/04/10 11:35:40;;;;;;;1.67;1.58;;;9.70;66.20;;;;;;4954723;29;20027;-74
2022/04/10 11:38:13;;;;;;;0.82;0.80;;;9.60;67.10;;;;;;4954382;29;20046;-75
2022/04/10 11:40:41;;;;;;;2.90;1.20;;;9.30;68.80;;;;;;4953703;29;20031;-75
2022/04/10 11:43:11;;;;;;;2.70;0.90;;;9.30;67.50;;;;;;4954529;29;20019;-83
2022/04/10 11:45:37;;;;;;;1.17;0.82;;;9.40;66.90;;;;;;4953720;29;20110;-74
2022/04/10 11:48:05;;;;;;;0.98;0.98;;;9.70;66.70;;;;;;4953864;29;20023;-75
2022/04/10 11:50:32;;;;;;;1.10;1.00;;;10.60;66.50;;;;;;4953840;29;20019;-76
2022/04/10 11:53:12;;;;;;;1.40;0.93;;;11.80;64.10;;;;;;4952713;29;20137;-75
2022/04/10 11:55:43;;;;;;;1.67;0.90;;;13.40;61.80;;;;;;4952679;29;20111;-74
2022/04/10 11:58:16;;;;;;;3.17;1.95;;;14.20;59.10;;;;;;4952696;29;20464;-76
2022/04/10 12:00:50;;;;;;;1.48;0.60;;;14.20;57.90;;;;;;4952940;29;20508;-75
2022/04/10 12:03:21;;;;;;;2.25;0.90;;;14.10;55.10;;;;;;4953924;29;20041;-75
2022/04/10 12:05:47;;;;;;;2.10;1.17;;;12.90;56.00;;;;;;4954579;29;20118;-75
2022/04/10 12:08:14;;;;;;;0.60;0.60;;;12.40;58.20;;;;;;4953617;29;20421;-75
2022/04/10 12:10:40;;;;;;;2.47;0.70;;;11.90;58.60;;;;;;4953112;29;20349;-75
2022/04/10 12:13:09;;;;;;;2.95;1.27;;;10.80;59.10;;;;;;4953629;28;20206;-75
2022/04/10 12:15:35;;;;;;;0.77;0.60;;;10.40;57.80;;;;;;4953425;29;20381;-74
2022/04/10 12:18:05;;;;;;;0.82;0.60;;;10.30;58.90;;;;;;4953044;29;20058;-75
2022/04/10 12:20:32;;;;;;;0.60;0.60;;;10.90;59.80;;;;;;4953676;29;20027;-74
2022/04/10 12:22:58;;;;;;;2.15;0.70;;;12.60;57.70;;;;;;4953168;29;20118;-75
2022/04/10 12:25:24;;;;;;;2.15;0.80;;;14.00;55.70;;;;;;4952168;29;20106;-76
2022/04/10 12:27:51;;;;;;;1.85;0.57;;;14.60;52.90;;;;;;4952172;29;20050;-75
2022/04/10 12:30:18;;;;;;;1.73;0.60;;;15.70;53.40;;;;;;4934619;29;20172;-77
2022/04/10 12:32:44;;;;;;;0.70;0.70;;;15.10;50.90;;;;;;4952082;29;20015;-75
2022/04/10 12:35:12;;;;;;;0.90;0.50;;;15.20;53.00;;;;;;4952517;29;20081;-75
2022/04/10 12:38:00;;;;;;;1.02;0.60;;;14.70;52.70;;;;;;4952119;29;20019;-74
2022/04/10 12:40:29;;;;;;;1.00;0.90;;;13.50;57.00;;;;;;4951837;29;20051;-75
2022/04/10 12:42:59;;;;;;;2.30;0.90;;;14.20;59.10;;;;;;4951833;29;20110;-75
2022/04/10 12:45:27;;;;;;;0.60;0.45;;;15.40;53.60;;;;;;4951973;29;20287;-75
2022/04/10 12:47:53;;;;;;;1.27;0.50;;;16.10;52.60;;;;;;4952114;29;20027;-75
2022/04/10 12:50:19;;;;;;;2.85;0.60;;;16.30;51.60;;;;;;4951942;29;20050;-75
2022/04/10 12:52:46;;;;;;;0.90;0.40;;;16.80;49.90;;;;;;4951873;29;20027;-75
2022/04/10 12:55:22;;;;;;;2.05;0.47;;;17.10;51.90;;;;;;4951465;29;20062;-75
2022/04/10 12:58:03;;;;;;;0.40;0.40;;;17.70;47.40;;;;;;4951795;29;20098;-75
2022/04/10 13:00:32;;;;;;;1.50;0.52;;;18.00;47.60;;;;;;4951682;29;20484;-75
2022/04/10 13:03:16;;;;;;;0.82;0.40;;;17.90;46.90;;;;;;4951692;29;20113;-75